AirNav   SIMCOM
 
 728 users online  

76T Bishop Airport
Decatur, Texas, USA

GOING TO DECATUR?


FAA INFORMATION EFFECTIVE 09 NOVEMBER 2017

Location

FAA Identifier: 76T
Lat/Long: 33-16-09.0000N / 097-27-06.7000W
33-16.150000N / 097-27.111667W
33.2691667 / -97.4518611
(estimated)
Elevation: 888 ft. / 271 m (estimated)
Variation: 07E (1985)
From city: 6 miles E of DECATUR, TX
Time zone: UTC -6 (UTC -5 during Daylight Saving Time)
Zip code: 76234

Airport Operations

Airport use: Open to the public
Activation date: 11/1990
Control tower: no
ARTCC: FORT WORTH CENTER
FSS: FORT WORTH FLIGHT SERVICE STATION
NOTAMs facility: FTW (NOTAM-D service available)
Attendance: UNATNDD
Wind indicator: yes
Segmented circle: no

Airport Communications

CTAF: 122.9
WX AWOS-3 at LUD (7 nm W): 118.225 (940-627-2365)
WX ASOS at DTO (13 nm E): 119.325 (940-383-8457)
WX ASOS at AFW (18 nm S): PHONE 817-491-6188
WX AWOS-3 at XBP (20 nm W): 119.225 (940-683-8027)

Nearby radio navigation aids

VOR radial/distance  VOR name  Freq  Var
UKWr125/24.5BOWIE VORTAC112.4006E
FUZr323/26.6RANGER VORTAC115.7006E
TTTr313/31.7MAVERICK VOR/DME113.1006E
CVEr304/35.7COWBOY VOR/DME116.2006E

 
NDB name  Hdg/Dist  Freq  Var  ID
PINCK262/12.825704EDT -.. -
GRINDSTONE MOUNTAIN134/25.835607EGMZ --. -- --..

Airport Services

Parking: hangars and tiedowns
Airframe service: MAJOR
Powerplant service: MAJOR

Runway Information

Runway 17/35

Dimensions: 3730 x 170 ft. / 1137 x 52 m
Surface: turf, in fair condition
Gradient: N
RUNWAY 17  RUNWAY 35
Latitude: 33-16.457808N33-15.842607N
Longitude: 097-27.112595W097-27.110937W
Elevation: 888.0 ft.873.0 ft.
Gradient: 0.4% UP
Traffic pattern: leftleft
Runway heading: 173 magnetic, 180 true353 magnetic, 360 true
Obstructions: 12 ft. trees25 ft. trees, 20 ft. from runway, 125 ft. left of centerline

Airport Ownership and Management from official FAA records

Ownership: Privately-owned
Owner: TOM BISHOP
192 PR 2506
DECATUR, TX 76234
Phone 940-389-6100
Manager: TOM BISHOP
330 PR 2506
DECATUR, TX 76234
Phone 940-389-6100
ADDITIONAL PHONE: 940-389-6200

Airport Operational Statistics

Aircraft based on the field: 9
Single engine airplanes: 4
Gliders airplanes: 3
Ultralights: 2
    
Aircraft operations: avg 33/month *
75% local general aviation
25% transient general aviation
* for 12-month period ending 31 December 2015

Additional Remarks

RY MAY BE ROUGH DUE TO DROUGHT CONDS.
RY SOFT AFT HVY RAIN.
FOR RY CONDS CALL 940-389-6100.
FOR CD CTC REGIONAL APCH AT 972-615-2799.

Instrument Procedures

There are no published instrument procedures at 76T.

Some nearby airports with instrument procedures:

KLUD - Decatur Municipal Airport (7 nm W)
KDTO - Denton Enterprise Airport (13 nm E)
4T2 - Kenneth Copeland Airport (18 nm S)
KAFW - Fort Worth Alliance Airport (18 nm S)
KXBP - Bridgeport Municipal Airport (20 nm W)
 
Loc | Ops | Rwys | IFR | FBO | Links
Com | Nav | Svcs | Stats | Notes

Lake Texoma Jet Center
AirBoss

 
Area around 76T (Bishop Airport)
 
Road maps at: MapQuest Bing Google
 
Aerial photo
No photo
 
Sectional chart

 
Airport distance calculator
Flying to Bishop Airport? Find the distance to fly.

From to 76T

Sunrise and sunset
Times for 21-Nov-2017
 Local
(UTC-6)
 Zulu
(UTC)
Morning civil twilight06:4112:41
Sunrise07:0813:08
Sunset17:2423:24
Evening civil twilight17:5123:51

Current date and time
Zulu (UTC)  22-Nov-2017 04:11:21
Local (UTC-6)  21-Nov-2017 22:11:21
 
METAR
KLUD 
7nm W 
118.22 940-927-2365
220355Z AUTO 35008KT 10SM CLR 11/00 A3024 RMK AO2 T01130000
KDTO 
13nm E 
220353Z 36010KT 10SM CLR 12/02 A3023 RMK AO2 SLP232 T01170022
KAFW 
19nm S 
220353Z 36012KT 10SM CLR 12/02 A3022 RMK AO2 SLP232 T01220022
KXBP 
20nm W 
220355Z AUTO 35007KT 10SM CLR 12/00 A3027 RMK AO2 T01180001
TAF
KAFW 
19nm S 
212056Z 2121/2218 01011KT P6SM BKN250 FM220200 01015KT P6SM FEW035 SCT250 FM221500 36010KT P6SM SKC
NOTAMs
Click for the latest NOTAMs
NOTAMs are issued by the DoD/FAA and will open in a separate window not controlled by AirNav.

 

 
 

Would you like to see your business listed on this page?

 If your business provides an interesting product or service to pilots, flight crews, aircraft, or users of the Bishop Airport, you should consider listing it here.  To start the listing process, click on the button below
 
Add a business
 

Other Pages about Bishop Airport

Update a link
 
Copyright © AirNav, LLC. All rights reserved. Privacy Policy  Contact